Time;durP1;ratioP1;P1;durP2;ratioP2;P2;SDS_P1;SDS_P2;PMS_P1;PMS_P2;Temp;Humidity;BMP_temperature;BMP_pressure;BME280_temperature;BME280_humidity;BME280_pressure;Samples;Min_cycle;Max_cycle;Signal;HPM_P1;HPM_P2
2023/03/03 00:02:47;;;;;;;2.03;1.00;;;;;;;;;;6188181;28;20298;-77
2023/03/03 00:05:53;;;;;;;0.83;0.83;;;;;;;;;;6189131;28;20296;-77
2023/03/03 00:08:58;;;;;;;2.23;1.20;;;;;;;;;;6188368;28;20302;-78
2023/03/03 00:12:21;;;;;;;1.23;1.13;;;;;;;;;;6188646;28;20415;-77
2023/03/03 00:15:27;;;;;;;1.40;1.10;;;;;;;;;;6188350;28;20298;-78
2023/03/03 00:18:36;;;;;;;3.17;1.03;;;;;;;;;;6188519;28;20291;-77
2023/03/03 00:21:44;;;;;;;3.03;1.20;;;;;;;;;;6188520;28;20300;-77
2023/03/03 00:24:49;;;;;;;7.77;1.00;;;;;;;;;;6188227;28;20305;-77
2023/03/03 00:27:55;;;;;;;2.20;0.87;;;;;;;;;;6187476;28;20611;-77
2023/03/03 00:31:02;;;;;;;5.03;1.23;;;;;;;;;;6170788;28;20300;-78
2023/03/03 00:34:23;;;;;;;1.43;0.90;;;;;;;;;;6186791;28;20597;-78
2023/03/03 00:37:31;;;;;;;0.93;0.93;;;;;;;;;;6170154;28;20276;-78
2023/03/03 00:40:37;;;;;;;4.30;1.00;;;;;;;;;;6187648;28;20303;-78
2023/03/03 00:43:43;;;;;;;2.10;1.17;;;;;;;;;;6170575;28;20294;-78
2023/03/03 00:46:48;;;;;;;2.30;1.00;;;;;;;;;;6170965;28;20307;-78
2023/03/03 00:49:55;;;;;;;3.60;1.37;;;;;;;;;;6187302;28;20300;-78
2023/03/03 00:53:03;;;;;;;1.83;1.07;;;;;;;;;;6187222;28;20300;-78
2023/03/03 00:56:08;;;;;;;2.53;1.10;;;;;;;;;;6186897;28;20290;-78
2023/03/03 00:59:14;;;;;;;6.50;1.50;;;;;;;;;;6187152;28;20301;-78
2023/03/03 01:02:19;;;;;;;5.03;1.30;;;;;;;;;;6170220;28;20298;-78
2023/03/03 01:05:25;;;;;;;3.13;0.80;;;;;;;;;;6170818;28;20469;-77
2023/03/03 01:08:31;;;;;;;5.13;1.10;;;;;;;;;;6170282;28;20289;-76
2023/03/03 01:11:36;;;;;;;1.03;1.00;;;;;;;;;;6181224;28;20608;-77
2023/03/03 01:14:41;;;;;;;3.53;1.20;;;;;;;;;;6169810;28;20317;-78
2023/03/03 01:17:47;;;;;;;6.10;1.37;;;;;;;;;;6186970;28;20474;-77
2023/03/03 01:20:53;;;;;;;1.50;0.80;;;;;;;;;;6187517;28;20305;-76
2023/03/03 01:23:59;;;;;;;1.90;1.10;;;;;;;;;;6185692;28;20305;-77
2023/03/03 01:27:04;;;;;;;1.37;1.23;;;;;;;;;;6186053;28;20460;-76
2023/03/03 01:30:12;;;;;;;2.53;1.10;;;;;;;;;;6186744;28;20300;-78
2023/03/03 01:33:17;;;;;;;0.90;0.90;;;;;;;;;;6185482;28;20301;-76
2023/03/03 01:36:26;;;;;;;5.93;1.23;;;;;;;;;;6186873;28;20293;-78
2023/03/03 01:39:33;;;;;;;1.27;1.20;;;;;;;;;;6169453;28;20624;-78
2023/03/03 01:42:38;;;;;;;3.00;1.00;;;;;;;;;;6169904;28;20572;-75
2023/03/03 01:46:00;;;;;;;2.77;1.23;;;;;;;;;;6162474;28;20411;-78
2023/03/03 01:49:11;;;;;;;1.50;1.17;;;;;;;;;;6184678;28;20320;-77
2023/03/03 01:52:26;;;;;;;0.97;0.93;;;;;;;;;;6169267;28;20293;-76
2023/03/03 01:55:35;;;;;;;1.87;1.00;;;;;;;;;;6185216;28;20308;-78
2023/03/03 01:58:43;;;;;;;0.73;0.73;;;;;;;;;;6185695;28;20305;-77
2023/03/03 02:01:49;;;;;;;4.27;1.10;;;;;;;;;;6168952;28;20316;-77
2023/03/03 02:04:54;;;;;;;1.73;1.07;;;;;;;;;;6195484;23;20305;-74
2023/03/03 02:08:02;;;;;;;2.70;1.07;;;;;;;;;;6165572;28;20313;-75
2023/03/03 02:11:07;;;;;;;5.17;1.17;;;;;;;;;;6185251;28;20438;-75
2023/03/03 02:14:13;;;;;;;1.73;1.13;;;;;;;;;;6183681;28;20300;-75
2023/03/03 02:17:20;;;;;;;1.13;0.90;;;;;;;;;;6185909;28;20296;-75
2023/03/03 02:20:47;;;;;;;2.60;1.30;;;;;;;;;;6185692;28;20287;-74
2023/03/03 02:24:00;;;;;;;1.43;0.97;;;;;;;;;;6185448;28;20300;-74
2023/03/03 02:27:07;;;;;;;3.23;1.00;;;;;;;;;;6172071;28;20293;-75
2023/03/03 02:30:16;;;;;;;3.40;1.33;;;;;;;;;;6184024;28;20465;-75
2023/03/03 02:33:21;;;;;;;1.90;1.00;;;;;;;;;;6184157;28;20309;-74
2023/03/03 02:36:29;;;;;;;1.87;1.17;;;;;;;;;;6185270;28;20304;-74
2023/03/03 02:39:35;;;;;;;3.93;1.17;;;;;;;;;;6168059;28;20294;-75
2023/03/03 02:42:41;;;;;;;1.17;1.07;;;;;;;;;;6185547;28;20294;-74
2023/03/03 02:45:46;;;;;;;1.63;1.17;;;;;;;;;;6178382;28;20300;-75
2023/03/03 02:48:52;;;;;;;4.03;1.20;;;;;;;;;;6184894;28;20442;-74
2023/03/03 02:51:57;;;;;;;1.10;1.00;;;;;;;;;;6184115;28;20296;-74
2023/03/03 02:55:03;;;;;;;2.83;0.93;;;;;;;;;;6183832;28;20328;-73
2023/03/03 02:58:09;;;;;;;4.53;1.10;;;;;;;;;;6184893;28;20297;-74
2023/03/03 03:01:14;;;;;;;2.20;1.17;;;;;;;;;;6182919;28;20308;-74
2023/03/03 03:04:21;;;;;;;2.77;1.20;;;;;;;;;;6169755;28;20308;-74
2023/03/03 03:07:28;;;;;;;7.83;1.23;;;;;;;;;;6188345;28;20441;-74
2023/03/03 03:10:33;;;;;;;3.53;1.03;;;;;;;;;;6172050;28;20308;-75
2023/03/03 03:13:40;;;;;;;4.00;1.23;;;;;;;;;;6171322;28;20304;-73
2023/03/03 03:16:45;;;;;;;0.87;0.87;;;;;;;;;;6188138;28;20308;-74
2023/03/03 03:19:50;;;;;;;4.57;1.20;;;;;;;;;;6187147;28;20295;-74
2023/03/03 03:22:56;;;;;;;2.83;0.90;;;;;;;;;;6171661;28;20292;-75
2023/03/03 03:26:02;;;;;;;1.80;0.80;;;;;;;;;;6188147;28;20593;-73
2023/03/03 03:29:09;;;;;;;1.47;1.10;;;;;;;;;;6188975;28;20304;-74
2023/03/03 03:32:17;;;;;;;3.27;1.00;;;;;;;;;;6171974;28;20308;-74
2023/03/03 03:35:22;;;;;;;1.07;1.07;;;;;;;;;;6171438;28;20299;-74
2023/03/03 03:38:30;;;;;;;1.70;0.80;;;;;;;;;;6171472;28;20307;-74
2023/03/03 03:41:36;;;;;;;1.30;1.10;;;;;;;;;;6187929;28;20370;-74
2023/03/03 03:44:43;;;;;;;2.70;1.10;;;;;;;;;;6171077;28;20292;-75
2023/03/03 03:47:47;;;;;;;1.90;1.10;;;;;;;;;;6188021;28;20585;-73
2023/03/03 03:50:53;;;;;;;2.77;1.30;;;;;;;;;;6187657;28;20407;-73
2023/03/03 03:54:00;;;;;;;1.43;1.00;;;;;;;;;;6171127;28;20296;-73
2023/03/03 03:57:05;;;;;;;3.93;1.30;;;;;;;;;;6187533;28;20293;-75
2023/03/03 04:00:14;;;;;;;3.00;1.23;;;;;;;;;;6187044;28;20296;-75
2023/03/03 04:03:26;;;;;;;1.70;1.20;;;;;;;;;;6175743;28;20309;-74
2023/03/03 04:06:31;;;;;;;1.73;0.90;;;;;;;;;;6177944;28;20498;-74
2023/03/03 04:09:38;;;;;;;2.23;1.20;;;;;;;;;;6163817;28;20298;-75
2023/03/03 04:12:44;;;;;;;2.57;1.23;;;;;;;;;;6162762;29;20304;-74
2023/03/03 04:15:52;;;;;;;1.73;1.00;;;;;;;;;;6162508;28;20293;-74
2023/03/03 04:18:58;;;;;;;5.27;1.20;;;;;;;;;;6168738;28;20297;-74
2023/03/03 04:22:05;;;;;;;5.40;1.10;;;;;;;;;;6171020;28;20299;-74
2023/03/03 04:25:14;;;;;;;2.17;1.00;;;;;;;;;;6186682;28;20332;-74
2023/03/03 04:28:21;;;;;;;5.90;1.27;;;;;;;;;;6186310;28;20493;-74
2023/03/03 04:31:28;;;;;;;1.10;0.97;;;;;;;;;;6185353;28;20292;-74
2023/03/03 04:34:34;;;;;;;3.33;1.00;;;;;;;;;;6170272;28;20291;-74
2023/03/03 04:37:39;;;;;;;1.03;0.93;;;;;;;;;;6151132;29;20307;-75
2023/03/03 04:40:45;;;;;;;2.70;1.40;;;;;;;;;;6162740;28;20296;-74
2023/03/03 04:43:50;;;;;;;3.00;1.57;;;;;;;;;;6161902;28;20499;-73
2023/03/03 04:46:57;;;;;;;2.33;1.00;;;;;;;;;;6162275;29;20305;-74
2023/03/03 04:50:02;;;;;;;1.97;1.50;;;;;;;;;;6163110;28;20499;-74
2023/03/03 04:53:10;;;;;;;2.33;1.00;;;;;;;;;;6161364;28;20309;-74
2023/03/03 04:56:17;;;;;;;3.17;1.13;;;;;;;;;;6162151;28;20298;-74
2023/03/03 04:59:22;;;;;;;3.07;1.30;;;;;;;;;;6162504;28;20303;-74
2023/03/03 05:02:29;;;;;;;1.23;1.10;;;;;;;;;;6161327;28;20306;-74
2023/03/03 05:05:34;;;;;;;3.03;1.30;;;;;;;;;;6145575;29;20316;-74
2023/03/03 05:08:42;;;;;;;6.90;1.30;;;;;;;;;;6162537;29;20292;-74
2023/03/03 05:11:47;;;;;;;3.53;1.30;;;;;;;;;;6175591;28;20295;-73
2023/03/03 05:14:52;;;;;;;2.77;1.20;;;;;;;;;;6162224;29;20317;-74
2023/03/03 05:17:59;;;;;;;6.43;1.07;;;;;;;;;;6160979;29;20299;-75
2023/03/03 05:21:05;;;;;;;4.60;1.40;;;;;;;;;;6162757;29;20360;-74
2023/03/03 05:24:13;;;;;;;3.23;1.67;;;;;;;;;;6161807;29;20329;-73
2023/03/03 05:27:18;;;;;;;6.70;1.43;;;;;;;;;;6161580;28;20315;-74
2023/03/03 05:30:23;;;;;;;3.40;1.20;;;;;;;;;;6161683;28;20582;-74
2023/03/03 05:33:30;;;;;;;4.40;1.37;;;;;;;;;;6161607;28;20301;-74
2023/03/03 05:36:35;;;;;;;2.20;1.30;;;;;;;;;;6162396;28;20288;-74
2023/03/03 05:39:40;;;;;;;7.10;1.40;;;;;;;;;;6161941;29;20304;-74
2023/03/03 05:42:47;;;;;;;9.37;1.30;;;;;;;;;;6161813;28;20480;-74
2023/03/03 05:45:56;;;;;;;1.77;1.20;;;;;;;;;;6161773;29;20604;-74
2023/03/03 05:49:03;;;;;;;5.53;1.30;;;;;;;;;;6161130;29;20303;-75
2023/03/03 05:52:09;;;;;;;3.23;1.20;;;;;;;;;;6162010;29;20299;-76
2023/03/03 05:55:14;;;;;;;10.97;1.30;;;;;;;;;;6161228;29;20312;-74
2023/03/03 05:58:20;;;;;;;1.47;1.37;;;;;;;;;;6161655;29;20374;-74
2023/03/03 06:01:25;;;;;;;8.50;1.80;;;;;;;;;;6160500;28;20286;-74
2023/03/03 06:04:32;;;;;;;2.07;1.37;;;;;;;;;;6161059;29;20306;-74
2023/03/03 06:07:37;;;;;;;5.90;1.40;;;;;;;;;;6161237;28;20456;-75
2023/03/03 06:10:42;;;;;;;6.60;1.87;;;;;;;;;;6172142;28;20267;-74
2023/03/03 06:13:50;;;;;;;1.43;1.23;;;;;;;;;;6145985;28;20366;-75
2023/03/03 06:16:56;;;;;;;4.17;1.40;;;;;;;;;;6161922;29;20315;-74
2023/03/03 06:20:03;;;;;;;2.70;1.10;;;;;;;;;;6162001;28;20295;-75
2023/03/03 06:23:09;;;;;;;7.10;1.40;;;;;;;;;;6161077;28;20307;-74
2023/03/03 06:26:14;;;;;;;10.67;1.43;;;;;;;;;;6161904;29;20320;-74
2023/03/03 06:29:19;;;;;;;6.37;1.50;;;;;;;;;;6146073;28;20303;-74
2023/03/03 06:32:24;;;;;;;5.40;1.73;;;;;;;;;;6161206;28;20309;-75
2023/03/03 06:35:31;;;;;;;7.73;1.83;;;;;;;;;;6161654;28;20301;-74
2023/03/03 06:38:36;;;;;;;11.40;1.73;;;;;;;;;;6162889;28;20552;-74
2023/03/03 06:41:41;;;;;;;3.50;1.30;;;;;;;;;;6166137;28;20299;-75
2023/03/03 06:44:46;;;;;;;4.27;1.60;;;;;;;;;;6165824;29;20311;-75
2023/03/03 06:47:51;;;;;;;4.97;1.70;;;;;;;;;;6165526;29;20305;-74
2023/03/03 06:50:58;;;;;;;5.50;1.77;;;;;;;;;;6165879;29;20297;-75
2023/03/03 06:54:10;;;;;;;6.33;1.30;;;;;;;;;;6165573;29;20301;-76
2023/03/03 06:57:18;;;;;;;5.63;1.60;;;;;;;;;;6166013;29;20321;-74
2023/03/03 07:00:25;;;;;;;4.53;1.70;;;;;;;;;;6147649;29;20308;-75
2023/03/03 07:03:35;;;;;;;3.03;1.50;;;;;;;;;;6148010;29;20391;-73
2023/03/03 07:06:41;;;;;;;7.40;1.80;;;;;;;;;;6165513;29;20303;-74
2023/03/03 07:09:48;;;;;;;12.93;1.80;;;;;;;;;;6167971;28;20601;-75
2023/03/03 07:12:53;;;;;;;4.30;1.40;;;;;;;;;;6174781;28;20307;-75
2023/03/03 07:16:03;;;;;;;8.97;1.60;;;;;;;;;;6165908;28;20295;-75
2023/03/03 07:19:19;;;;;;;6.13;1.90;;;;;;;;;;6164679;29;20316;-74
2023/03/03 07:22:38;;;;;;;7.63;1.80;;;;;;;;;;6163664;29;20458;-75
2023/03/03 07:25:45;;;;;;;10.23;1.60;;;;;;;;;;6164956;29;20305;-76
2023/03/03 07:28:54;;;;;;;6.77;1.70;;;;;;;;;;6164754;29;20293;-75
2023/03/03 07:32:01;;;;;;;8.67;1.70;;;;;;;;;;6163740;29;20306;-75
2023/03/03 07:35:27;;;;;;;4.83;1.40;;;;;;;;;;6163607;29;20325;-75
2023/03/03 07:38:37;;;;;;;8.43;1.63;;;;;;;;;;6164739;29;20300;-73
2023/03/03 07:41:43;;;;;;;10.13;1.73;;;;;;;;;;6165009;29;20302;-72
2023/03/03 07:44:48;;;;;;;4.93;1.67;;;;;;;;;;6164768;29;20300;-73
2023/03/03 07:47:58;;;;;;;5.07;1.70;;;;;;;;;;6164233;29;20304;-76
2023/03/03 07:51:06;;;;;;;8.73;1.80;;;;;;;;;;6162698;28;20300;-75
2023/03/03 07:54:25;;;;;;;4.37;1.70;;;;;;;;;;6163801;29;20299;-75
2023/03/03 07:57:36;;;;;;;3.23;1.63;;;;;;;;;;6163949;29;20312;-74
2023/03/03 08:01:27;;;;;;;2.53;1.37;;;;;;;;;;6164600;29;20308;-74
2023/03/03 08:04:41;;;;;;;11.80;1.60;;;;;;;;;;6163166;29;20488;-75
2023/03/03 08:07:47;;;;;;;4.13;1.47;;;;;;;;;;6163747;29;20295;-77
2023/03/03 08:10:54;;;;;;;11.83;1.83;;;;;;;;;;6175934;28;20291;-76
2023/03/03 08:13:59;;;;;;;5.90;1.57;;;;;;;;;;6188159;28;20312;-76
2023/03/03 08:17:13;;;;;;;7.10;1.73;;;;;;;;;;6188599;28;20296;-75
2023/03/03 08:20:49;;;;;;;3.70;1.50;;;;;;;;;;6188038;28;20300;-75
2023/03/03 08:23:54;;;;;;;4.43;1.30;;;;;;;;;;6188127;28;20606;-74
2023/03/03 08:27:01;;;;;;;7.03;1.60;;;;;;;;;;6188532;28;20297;-75
2023/03/03 08:30:07;;;;;;;7.27;1.57;;;;;;;;;;6187867;28;20300;-75
2023/03/03 08:33:13;;;;;;;5.70;1.60;;;;;;;;;;6187961;28;20316;-75
2023/03/03 08:36:18;;;;;;;7.10;1.47;;;;;;;;;;6171071;28;20300;-75
2023/03/03 08:39:23;;;;;;;6.07;1.60;;;;;;;;;;6187352;28;20589;-74
2023/03/03 08:42:30;;;;;;;8.50;1.80;;;;;;;;;;6169977;28;20303;-75
2023/03/03 08:45:35;;;;;;;10.70;1.97;;;;;;;;;;6187878;28;20492;-75
2023/03/03 08:48:41;;;;;;;6.97;1.57;;;;;;;;;;6187482;28;20292;-74
2023/03/03 08:51:46;;;;;;;7.33;1.63;;;;;;;;;;6170283;28;20297;-77
2023/03/03 08:54:54;;;;;;;6.13;1.93;;;;;;;;;;6170197;28;20249;-74
2023/03/03 08:58:01;;;;;;;7.33;1.67;;;;;;;;;;6185972;28;20304;-76
2023/03/03 09:01:06;;;;;;;6.23;1.60;;;;;;;;;;6187265;28;20297;-74
2023/03/03 09:04:12;;;;;;;5.43;2.00;;;;;;;;;;6186454;28;20316;-75
2023/03/03 09:07:17;;;;;;;5.27;1.73;;;;;;;;;;6187425;28;20304;-74
2023/03/03 09:10:28;;;;;;;8.00;1.73;;;;;;;;;;6186391;28;20611;-74
2023/03/03 09:13:34;;;;;;;9.33;1.53;;;;;;;;;;6162628;28;20324;-75
2023/03/03 09:16:42;;;;;;;6.13;1.90;;;;;;;;;;6186951;28;20280;-75
2023/03/03 09:19:47;;;;;;;8.77;2.10;;;;;;;;;;6186511;28;20288;-76
2023/03/03 09:22:53;;;;;;;10.00;2.37;;;;;;;;;;6186510;28;20395;-74
2023/03/03 09:26:06;;;;;;;8.83;2.13;;;;;;;;;;6185644;28;20356;-74
2023/03/03 09:29:26;;;;;;;7.50;1.90;;;;;;;;;;6186115;28;20311;-75
2023/03/03 09:32:35;;;;;;;6.43;1.83;;;;;;;;;;6185301;28;20349;-74
2023/03/03 09:35:41;;;;;;;4.93;1.97;;;;;;;;;;6186239;28;20305;-75
2023/03/03 09:38:46;;;;;;;5.03;1.43;;;;;;;;;;6185656;28;20308;-74
2023/03/03 09:42:34;;;;;;;12.60;3.20;;;;;;;;;;6186596;28;20393;-75
2023/03/03 09:45:52;;;;;;;10.57;2.10;;;;;;;;;;6185070;28;20367;-76
2023/03/03 09:49:07;;;;;;;5.30;1.40;;;;;;;;;;6185663;28;20304;-75
2023/03/03 09:52:22;;;;;;;3.97;1.80;;;;;;;;;;6185876;28;20306;-74
2023/03/03 09:55:36;;;;;;;4.70;1.90;;;;;;;;;;6167277;28;20305;-75
2023/03/03 09:58:50;;;;;;;6.37;1.80;;;;;;;;;;6185826;28;20490;-76
2023/03/03 10:02:13;;;;;;;10.57;1.60;;;;;;;;;;6186370;28;20388;-74
2023/03/03 10:05:34;;;;;;;13.13;2.00;;;;;;;;;;6166079;28;20311;-75
2023/03/03 10:08:51;;;;;;;3.87;1.50;;;;;;;;;;6162340;28;20297;-75
2023/03/03 10:12:00;;;;;;;6.80;1.80;;;;;;;;;;6149760;28;20478;-75
2023/03/03 10:15:26;;;;;;;9.80;2.37;;;;;;;;;;6169677;28;20304;-75
2023/03/03 10:18:39;;;;;;;12.80;1.87;;;;;;;;;;6170159;28;20319;-74
2023/03/03 10:21:49;;;;;;;5.83;1.50;;;;;;;;;;6170558;28;20294;-75
2023/03/03 10:25:07;;;;;;;9.00;1.43;;;;;;;;;;6152446;28;20331;-76
2023/03/03 10:28:48;;;;;;;7.73;1.50;;;;;;;;;;6174379;28;20299;-75
2023/03/03 10:32:21;;;;;;;16.77;2.00;;;;;;;;;;6167987;28;20362;-75
2023/03/03 10:35:46;;;;;;;9.07;2.00;;;;;;;;;;6169061;28;20300;-75
2023/03/03 10:39:24;;;;;;;5.07;2.50;;;;;;;;;;6169498;28;20299;-75
2023/03/03 10:42:51;;;;;;;12.43;1.97;;;;;;;;;;6169645;28;20301;-76
2023/03/03 10:46:30;;;;;;;8.83;1.70;;;;;;;;;;6169740;28;20292;-74
2023/03/03 10:49:56;;;;;;;1.83;1.40;;;;;;;;;;6158955;28;20307;-76
2023/03/03 10:53:16;;;;;;;8.80;1.87;;;;;;;;;;6168951;28;20299;-75
2023/03/03 10:56:33;;;;;;;6.30;1.93;;;;;;;;;;6170025;28;20478;-76
2023/03/03 11:00:04;;;;;;;6.60;1.50;;;;;;;;;;6170077;28;20344;-75
2023/03/03 11:03:35;;;;;;;4.40;1.30;;;;;;;;;;6172895;28;20320;-75
2023/03/03 11:06:46;;;;;;;4.33;1.40;;;;;;;;;;6195147;28;20289;-77
2023/03/03 11:10:05;;;;;;;3.10;1.27;;;;;;;;;;6189526;28;20305;-75
2023/03/03 11:13:16;;;;;;;3.30;1.40;;;;;;;;;;6186126;28;20298;-75
2023/03/03 11:16:48;;;;;;;6.63;1.50;;;;;;;;;;6193985;28;20305;-76
2023/03/03 11:20:02;;;;;;;4.23;1.47;;;;;;;;;;6190455;28;20297;-76
2023/03/03 11:23:35;;;;;;;1.90;1.20;;;;;;;;;;6193218;28;20305;-75
2023/03/03 11:26:55;;;;;;;2.40;1.40;;;;;;;;;;6157878;28;20314;-75
2023/03/03 11:30:25;;;;;;;1.37;1.23;;;;;;;;;;6190676;28;20300;-74
2023/03/03 11:33:36;;;;;;;4.30;1.10;;;;;;;;;;6188834;28;20298;-75
2023/03/03 11:36:47;;;;;;;1.23;1.10;;;;;;;;;;6189140;28;20300;-75
2023/03/03 11:39:55;;;;;;;1.27;1.07;;;;;;;;;;6188627;28;20297;-75
2023/03/03 11:43:10;;;;;;;4.97;1.10;;;;;;;;;;6188046;28;20294;-74
2023/03/03 11:46:18;;;;;;;4.83;1.23;;;;;;;;;;6189013;28;20302;-75
2023/03/03 11:49:29;;;;;;;4.77;1.50;;;;;;;;;;6187085;28;20306;-76
2023/03/03 11:52:39;;;;;;;2.80;1.33;;;;;;;;;;6188414;28;20457;-75
2023/03/03 11:55:47;;;;;;;1.20;1.20;;;;;;;;;;6188586;28;20307;-75
2023/03/03 11:59:03;;;;;;;1.80;1.50;;;;;;;;;;6188237;28;20320;-75
2023/03/03 12:02:43;;;;;;;2.63;1.20;;;;;;;;;;6188772;28;20359;-75
2023/03/03 12:06:00;;;;;;;2.23;1.30;;;;;;;;;;6187425;28;20303;-74
2023/03/03 12:09:23;;;;;;;4.47;1.33;;;;;;;;;;6187440;28;20317;-75
2023/03/03 12:12:33;;;;;;;1.07;1.00;;;;;;;;;;6175276;28;20306;-76
2023/03/03 12:15:45;;;;;;;4.10;1.00;;;;;;;;;;6187975;28;20300;-76
2023/03/03 12:19:00;;;;;;;1.43;1.20;;;;;;;;;;6186815;28;20372;-76
2023/03/03 12:22:32;;;;;;;3.53;1.00;;;;;;;;;;6188285;28;20297;-75
2023/03/03 12:25:40;;;;;;;4.20;1.10;;;;;;;;;;6186740;28;20288;-75
2023/03/03 12:28:50;;;;;;;3.20;1.10;;;;;;;;;;6188586;28;20293;-75
2023/03/03 12:32:08;;;;;;;1.50;1.00;;;;;;;;;;6187761;28;20291;-74
2023/03/03 12:35:24;;;;;;;6.80;1.30;;;;;;;;;;6186653;28;20303;-75
2023/03/03 12:38:38;;;;;;;2.00;1.07;;;;;;;;;;6187208;28;20496;-75
2023/03/03 12:41:50;;;;;;;0.93;0.93;;;;;;;;;;6187576;28;20304;-77
2023/03/03 12:45:03;;;;;;;6.67;1.33;;;;;;;;;;6187065;28;20308;-75
2023/03/03 12:48:16;;;;;;;1.87;1.10;;;;;;;;;;6186920;28;20327;-76
2023/03/03 12:51:34;;;;;;;2.83;1.20;;;;;;;;;;6187757;28;20305;-75
2023/03/03 12:54:52;;;;;;;1.00;1.00;;;;;;;;;;6186710;28;20306;-75
2023/03/03 12:58:04;;;;;;;2.77;1.27;;;;;;;;;;6186985;28;20303;-74
2023/03/03 13:01:19;;;;;;;1.90;1.17;;;;;;;;;;6187036;28;20314;-75
2023/03/03 13:04:34;;;;;;;4.23;1.03;;;;;;;;;;6158677;28;20309;-77
2023/03/03 13:07:44;;;;;;;3.63;0.97;;;;;;;;;;6186107;28;20432;-76
2023/03/03 13:10:55;;;;;;;3.50;1.40;;;;;;;;;;6186633;28;20297;-75
2023/03/03 13:14:05;;;;;;;3.60;1.30;;;;;;;;;;6162462;28;20299;-75
2023/03/03 13:17:20;;;;;;;1.70;1.10;;;;;;;;;;6145455;29;20311;-75
2023/03/03 13:20:35;;;;;;;3.73;1.13;;;;;;;;;;6161610;28;20303;-75
2023/03/03 13:23:47;;;;;;;1.53;1.10;;;;;;;;;;6162098;29;20308;-74
2023/03/03 13:26:55;;;;;;;3.63;1.00;;;;;;;;;;6161614;29;20301;-76
2023/03/03 13:30:03;;;;;;;3.10;1.00;;;;;;;;;;6162292;28;20299;-75
2023/03/03 13:33:11;;;;;;;1.93;1.20;;;;;;;;;;6161328;29;20301;-76
2023/03/03 13:36:18;;;;;;;1.50;1.10;;;;;;;;;;6162892;28;20301;-75
2023/03/03 13:39:27;;;;;;;1.00;0.90;;;;;;;;;;6161060;29;20309;-75
2023/03/03 13:42:38;;;;;;;5.27;1.10;;;;;;;;;;6162072;29;20302;-75
2023/03/03 13:45:51;;;;;;;3.20;0.93;;;;;;;;;;6144877;29;20294;-77
2023/03/03 13:49:13;;;;;;;1.60;0.90;;;;;;;;;;6160758;28;20303;-75
2023/03/03 13:52:22;;;;;;;6.67;1.50;;;;;;;;;;6162324;29;20304;-75
2023/03/03 13:55:31;;;;;;;3.70;1.17;;;;;;;;;;6160585;28;20299;-75
2023/03/03 13:58:44;;;;;;;1.53;1.30;;;;;;;;;;6162116;28;20306;-74
2023/03/03 14:01:57;;;;;;;2.10;1.00;;;;;;;;;;6161891;28;20453;-75
2023/03/03 14:05:05;;;;;;;3.80;1.17;;;;;;;;;;6161761;29;20312;-74
2023/03/03 14:08:24;;;;;;;1.03;0.90;;;;;;;;;;6161806;28;20295;-75
2023/03/03 14:11:33;;;;;;;1.50;1.40;;;;;;;;;;6174823;28;20287;-74
2023/03/03 14:14:47;;;;;;;4.80;1.20;;;;;;;;;;6161678;28;20576;-76
2023/03/03 14:18:17;;;;;;;6.17;1.17;;;;;;;;;;6161457;29;20303;-75
2023/03/03 14:21:28;;;;;;;1.97;0.83;;;;;;;;;;6160362;28;20310;-75
2023/03/03 14:24:56;;;;;;;3.90;1.10;;;;;;;;;;6161311;28;20316;-75
2023/03/03 14:31:50;;;;;;;8.00;1.13;;;;;;;;;;6159924;28;20301;-75
2023/03/03 14:35:00;;;;;;;1.10;1.03;;;;;;;;;;6161009;28;20307;-75
2023/03/03 14:38:09;;;;;;;1.60;1.20;;;;;;;;;;6160966;29;20310;-74
2023/03/03 14:41:19;;;;;;;4.00;1.00;;;;;;;;;;6160136;28;20309;-75
2023/03/03 14:44:28;;;;;;;3.53;1.40;;;;;;;;;;6159814;28;20305;-75
2023/03/03 14:47:35;;;;;;;4.73;1.10;;;;;;;;;;6160904;28;20295;-75
2023/03/03 14:50:41;;;;;;;1.50;1.10;;;;;;;;;;6161442;29;20308;-75
2023/03/03 14:53:49;;;;;;;1.10;1.10;;;;;;;;;;6160847;29;20291;-75
2023/03/03 14:57:01;;;;;;;4.00;1.37;;;;;;;;;;6161546;28;20303;-75
2023/03/03 15:00:27;;;;;;;3.03;1.20;;;;;;;;;;6162980;28;20309;-75
2023/03/03 15:03:32;;;;;;;2.77;1.30;;;;;;;;;;6164548;29;20308;-75
2023/03/03 15:06:41;;;;;;;3.53;1.90;;;;;;;;;;6164117;29;20578;-75
2023/03/03 15:09:50;;;;;;;2.30;1.20;;;;;;;;;;6167029;28;20456;-75
2023/03/03 15:12:57;;;;;;;5.30;1.20;;;;;;;;;;6172956;28;20308;-75
2023/03/03 15:16:09;;;;;;;27.70;6.80;;;;;;;;;;6165553;29;20303;-76
2023/03/03 15:19:37;;;;;;;19.17;3.47;;;;;;;;;;6165177;28;20315;-75
2023/03/03 15:22:48;;;;;;;2.07;1.17;;;;;;;;;;6163235;28;20296;-75
2023/03/03 15:25:59;;;;;;;1.70;1.40;;;;;;;;;;6165368;29;20296;-75
2023/03/03 15:29:12;;;;;;;10.00;1.50;;;;;;;;;;6164532;28;20307;-75
2023/03/03 15:32:23;;;;;;;6.40;1.23;;;;;;;;;;6163826;29;20490;-76
2023/03/03 15:35:37;;;;;;;1.10;1.10;;;;;;;;;;6164491;28;20315;-75
2023/03/03 15:38:53;;;;;;;4.67;1.27;;;;;;;;;;6164540;29;20300;-75
2023/03/03 15:42:02;;;;;;;3.87;1.20;;;;;;;;;;6165157;29;20481;-75
2023/03/03 15:45:18;;;;;;;1.03;1.03;;;;;;;;;;6147556;29;20296;-75
2023/03/03 15:48:44;;;;;;;2.03;1.10;;;;;;;;;;6164679;29;20302;-76
2023/03/03 15:52:01;;;;;;;2.60;0.90;;;;;;;;;;6164632;29;20695;-75
2023/03/03 15:55:17;;;;;;;2.17;1.00;;;;;;;;;;6164504;29;20324;-76
2023/03/03 15:58:46;;;;;;;3.67;1.50;;;;;;;;;;6164036;28;20309;-76
2023/03/03 16:02:01;;;;;;;1.20;1.20;;;;;;;;;;6162623;28;20301;-76
2023/03/03 16:05:15;;;;;;;1.27;1.13;;;;;;;;;;6146863;29;20616;-75
2023/03/03 16:08:25;;;;;;;2.77;1.10;;;;;;;;;;6163912;28;20305;-75
2023/03/03 16:11:37;;;;;;;1.20;1.07;;;;;;;;;;6176232;28;20533;-75
2023/03/03 16:14:52;;;;;;;3.57;1.20;;;;;;;;;;6146780;28;20596;-76
2023/03/03 16:18:04;;;;;;;2.03;1.17;;;;;;;;;;6162963;28;20303;-75
2023/03/03 16:21:22;;;;;;;1.30;1.30;;;;;;;;;;6164440;28;20299;-76
2023/03/03 16:24:37;;;;;;;4.37;1.70;;;;;;;;;;6163543;28;20304;-74
2023/03/03 16:27:46;;;;;;;2.63;1.10;;;;;;;;;;6163945;28;20598;-74
2023/03/03 16:30:56;;;;;;;1.47;1.20;;;;;;;;;;6164466;29;20293;-75
2023/03/03 16:34:13;;;;;;;2.70;1.30;;;;;;;;;;6164587;29;20318;-75
2023/03/03 16:37:23;;;;;;;1.40;1.30;;;;;;;;;;6164279;28;20585;-75
2023/03/03 16:40:32;;;;;;;1.57;1.43;;;;;;;;;;6161468;29;20598;-76
2023/03/03 16:43:46;;;;;;;1.60;1.00;;;;;;;;;;6146206;29;20311;-75
2023/03/03 16:46:52;;;;;;;1.17;1.07;;;;;;;;;;6163936;29;20304;-75
2023/03/03 16:50:07;;;;;;;1.00;1.00;;;;;;;;;;6163558;28;20590;-75
2023/03/03 16:53:19;;;;;;;2.80;1.50;;;;;;;;;;6163096;29;20296;-75
2023/03/03 16:56:31;;;;;;;1.70;1.60;;;;;;;;;;6164274;29;20305;-74
2023/03/03 16:59:44;;;;;;;2.93;1.50;;;;;;;;;;6162948;29;20303;-76
2023/03/03 17:03:24;;;;;;;2.20;1.37;;;;;;;;;;6162927;29;20310;-75
2023/03/03 17:06:41;;;;;;;1.43;1.07;;;;;;;;;;6163683;29;20292;-76
2023/03/03 17:10:04;;;;;;;1.53;1.13;;;;;;;;;;6165769;28;20299;-75
2023/03/03 17:13:29;;;;;;;1.00;1.00;;;;;;;;;;6170003;28;20300;-75
2023/03/03 17:16:38;;;;;;;5.43;1.30;;;;;;;;;;6162937;29;20287;-78
2023/03/03 17:20:04;;;;;;;2.33;1.13;;;;;;;;;;6163100;28;20406;-76
2023/03/03 17:23:43;;;;;;;1.10;1.10;;;;;;;;;;6163460;28;20303;-77
2023/03/03 17:26:59;;;;;;;2.27;1.27;;;;;;;;;;6164094;29;20303;-77
2023/03/03 17:30:13;;;;;;;7.93;1.30;;;;;;;;;;6161724;28;20299;-77
2023/03/03 17:33:34;;;;;;;2.20;1.30;;;;;;;;;;6162972;28;20308;-75
2023/03/03 17:36:48;;;;;;;5.47;1.40;;;;;;;;;;6162999;28;20305;-74
2023/03/03 17:40:17;;;;;;;1.10;1.10;;;;;;;;;;6160680;28;20302;-76
2023/03/03 17:43:25;;;;;;;3.23;1.20;;;;;;;;;;6161907;28;20305;-78
2023/03/03 17:46:36;;;;;;;1.37;1.03;;;;;;;;;;6162190;28;20271;-75
2023/03/03 17:50:07;;;;;;;2.40;0.90;;;;;;;;;;6145404;28;20313;-78
2023/03/03 17:53:28;;;;;;;0.83;0.83;;;;;;;;;;6161529;28;20312;-77
2023/03/03 17:56:42;;;;;;;1.07;1.07;;;;;;;;;;6146247;29;20299;-75
2023/03/03 18:00:04;;;;;;;2.87;1.60;;;;;;;;;;6136387;29;20302;-74
2023/03/03 18:03:46;;;;;;;3.93;2.03;;;;;;;;;;6144777;28;20309;-76
2023/03/03 18:07:14;;;;;;;1.10;1.10;;;;;;;;;;6122519;29;20308;-76
2023/03/03 18:10:43;;;;;;;2.63;1.10;;;;;;;;;;6168783;28;20248;-75
2023/03/03 18:14:07;;;;;;;5.93;0.80;;;;;;;;;;6163685;28;20484;-76
2023/03/03 18:17:35;;;;;;;5.27;1.80;;;;;;;;;;6162860;28;20297;-75
2023/03/03 18:21:03;;;;;;;15.60;1.10;;;;;;;;;;6161475;28;20380;-77
2023/03/03 18:24:31;;;;;;;5.93;1.10;;;;;;;;;;6162222;28;20300;-76
2023/03/03 18:27:38;;;;;;;1.40;1.30;;;;;;;;;;6176504;28;20292;-75
2023/03/03 18:30:57;;;;;;;0.93;0.90;;;;;;;;;;6162566;28;20295;-76
2023/03/03 18:34:08;;;;;;;2.37;1.10;;;;;;;;;;6162652;28;20298;-77
2023/03/03 18:37:39;;;;;;;1.97;0.90;;;;;;;;;;6181582;28;20304;-76
2023/03/03 18:40:51;;;;;;;6.83;1.07;;;;;;;;;;6181638;28;20559;-77
2023/03/03 18:43:58;;;;;;;1.37;0.80;;;;;;;;;;6165794;28;20370;-76
2023/03/03 18:47:04;;;;;;;0.90;0.90;;;;;;;;;;6167221;28;20297;-76
2023/03/03 18:50:22;;;;;;;6.53;1.40;;;;;;;;;;6166823;28;20299;-76
2023/03/03 18:53:29;;;;;;;3.03;0.90;;;;;;;;;;6166198;28;20294;-76
2023/03/03 18:56:46;;;;;;;2.27;1.40;;;;;;;;;;6167019;28;20295;-76
2023/03/03 18:59:55;;;;;;;0.90;0.90;;;;;;;;;;6166445;28;20596;-76
2023/03/03 19:03:03;;;;;;;4.60;0.80;;;;;;;;;;6164418;28;20305;-77
2023/03/03 19:06:11;;;;;;;5.93;1.00;;;;;;;;;;6181277;28;20310;-74
2023/03/03 19:09:21;;;;;;;1.00;1.00;;;;;;;;;;6165939;28;20308;-75
2023/03/03 19:12:56;;;;;;;0.90;0.90;;;;;;;;;;6187185;28;20299;-75
2023/03/03 19:16:02;;;;;;;7.17;1.20;;;;;;;;;;6168072;28;20608;-74